地図

経路データ

SID SEASON NUMBER BASIN SUBBASIN NAME ISO_TIME NATURE LAT LON WMO_WIND WMO_PRES WMO_AGENCY TRACK_TYPE DIST2LAND LANDFALL IFLAG USA_AGENCY USA_ATCF_ID USA_LAT USA_LON USA_RECORD USA_STATUS USA_WIND USA_PRES USA_SSHS USA_R34_NE USA_R34_SE USA_R34_SW USA_R34_NW USA_R50_NE USA_R50_SE USA_R50_SW USA_R50_NW USA_R64_NE USA_R64_SE USA_R64_SW USA_R64_NW USA_POCI USA_ROCI USA_RMW USA_EYE TOKYO_LAT TOKYO_LON TOKYO_GRADE TOKYO_WIND TOKYO_PRES TOKYO_R50_DIR TOKYO_R50_LONG TOKYO_R50_SHORT TOKYO_R30_DIR TOKYO_R30_LONG TOKYO_R30_SHORT TOKYO_LAND CMA_LAT CMA_LON CMA_CAT CMA_WIND CMA_PRES HKO_LAT HKO_LON HKO_CAT HKO_WIND HKO_PRES NEWDELHI_LAT NEWDELHI_LON NEWDELHI_GRADE NEWDELHI_WIND NEWDELHI_PRES NEWDELHI_CI NEWDELHI_DP NEWDELHI_POCI REUNION_LAT REUNION_LON REUNION_TYPE REUNION_WIND REUNION_PRES REUNION_TNUM REUNION_CI REUNION_RMW REUNION_R34_NE REUNION_R34_SE REUNION_R34_SW REUNION_R34_NW REUNION_R50_NE REUNION_R50_SE REUNION_R50_SW REUNION_R50_NW REUNION_R64_NE REUNION_R64_SE REUNION_R64_SW REUNION_R64_NW BOM_LAT BOM_LON BOM_TYPE BOM_WIND BOM_PRES BOM_TNUM BOM_CI BOM_RMW BOM_R34_NE BOM_R34_SE BOM_R34_SW BOM_R34_NW BOM_R50_NE BOM_R50_SE BOM_R50_SW BOM_R50_NW BOM_R64_NE BOM_R64_SE BOM_R64_SW BOM_R64_NW BOM_ROCI BOM_POCI BOM_EYE BOM_POS_METHOD BOM_PRES_METHOD NADI_LAT NADI_LON NADI_CAT NADI_WIND NADI_PRES WELLINGTON_LAT WELLINGTON_LON WELLINGTON_WIND WELLINGTON_PRES DS824_LAT DS824_LON DS824_STAGE DS824_WIND DS824_PRES TD9636_LAT TD9636_LON TD9636_STAGE TD9636_WIND TD9636_PRES TD9635_LAT TD9635_LON TD9635_WIND TD9635_PRES TD9635_ROCI NEUMANN_LAT NEUMANN_LON NEUMANN_CLASS NEUMANN_WIND NEUMANN_PRES MLC_LAT MLC_LON MLC_CLASS MLC_WIND MLC_PRES USA_GUST BOM_GUST BOM_GUST_PER REUNION_GUST REUNION_GUST_PER USA_SEAHGT USA_SEARAD_NE USA_SEARAD_SE USA_SEARAD_SW USA_SEARAD_NW STORM_SPEED STORM_DIR
1987311N10148 1987 94 WP MM MAURY 1987-11-07 00:00:00 NR 10.0000 148.200 main 1358 1358 O_________O___ jtwc_wp WP221987 10.0000 148.200 20 -1 10.0000 148.200 1 20 5 337
1987311N10148 1987 94 WP MM MAURY 1987-11-07 03:00:00 NR 10.2422 148.093 main 1380 1380 P_________P___ WP221987 10.2500 148.110 20 -1 10.2345 148.075 1 20 5 336
1987311N10148 1987 94 WP MM MAURY 1987-11-07 06:00:00 NR 10.4876 147.975 main 1413 1412 O_________P___ jtwc_wp WP221987 10.5000 148.000 20 -1 10.4752 147.950 1 20 6 333
1987311N10148 1987 94 WP MM MAURY 1987-11-07 09:00:00 NR 10.7391 147.841 main 1434 1434 P_________P___ WP221987 10.7500 147.857 20 -1 10.7282 147.825 1 20 6 332
1987311N10148 1987 94 WP MM MAURY 1987-11-07 12:00:00 NR 11.0000 147.700 main 1468 1468 O_________O___ jtwc_wp WP221987 11.0000 147.700 20 -1 11.0000 147.700 1 20 6 333
1987311N10148 1987 94 WP MM MAURY 1987-11-07 15:00:00 NR 11.2702 147.565 main 1501 1501 P_________P___ WP221987 11.2500 147.557 20 -1 11.2904 147.572 1 20 6 332
1987311N10148 1987 94 WP MM MAURY 1987-11-07 18:00:00 NR 11.5373 147.413 main 1523 1523 O_________P___ jtwc_wp WP221987 11.5000 147.400 20 -1 11.5747 147.425 1 20 6 329
1987311N10148 1987 94 WP MM MAURY 1987-11-07 21:00:00 NR 11.8045 147.232 main 1557 1557 P_________P___ WP221987 11.7875 147.223 20 -1 11.8216 147.241 1 20 6 319
1987311N10148 1987 94 WP MM MAURY 1987-11-08 00:00:00 NR 12.0000 147.000 main 1579 1579 O_________O___ jtwc_wp WP221987 12.0000 147.000 20 -1 12.0000 147.000 1 20 6 295
1987311N10148 1987 94 WP MM MAURY 1987-11-08 03:00:00 NR 12.0486 146.708 main 1579 1579 P_________P___ WP221987 12.0374 146.737 20 -1 12.0599 146.678 1 20 6 272
1987311N10148 1987 94 WP MM MAURY 1987-11-08 06:00:00 NR 12.0264 146.351 main 1579 1579 O_________P___ jtwc_wp WP221987 12.0000 146.400 20 -1 12.0527 146.302 1 20 8 267
1987311N10148 1987 94 WP MM MAURY 1987-11-08 09:00:00 NR 12.0059 145.925 main 1581 1581 P_________P___ WP221987 11.9926 145.950 20 -1 12.0192 145.900 1 20 8 268
1987311N10148 1987 94 WP MM MAURY 1987-11-08 12:00:00 NR 12.0000 145.500 main 1584 1584 O_________O___ jtwc_wp WP221987 12.0000 145.500 20 -1 12.0000 145.500 1 20 7 273
1987311N10148 1987 94 WP MM MAURY 1987-11-08 15:00:00 NR 12.0397 145.196 main 1587 1587 P_________P___ WP221987 12.0348 145.192 20 -1 12.0445 145.199 1 20 6 280
1987311N10148 1987 94 WP MM MAURY 1987-11-08 18:00:00 NR 12.1056 144.899 main 1602 1602 O_________P___ jtwc_wp WP221987 12.1000 144.900 20 -1 12.1112 144.897 1 20 6 284
1987311N10148 1987 94 WP MM MAURY 1987-11-08 21:00:00 NR 12.1948 144.553 main 1617 1617 P_________P___ WP221987 12.1923 144.560 20 -1 12.1974 144.546 1 20 8 284
1987311N10148 1987 94 WP MM MAURY 1987-11-09 00:00:00 NR 12.3000 144.100 main 1636 1636 O_________O___ jtwc_wp WP221987 12.3000 144.100 20 -1 12.3000 144.100 1 20 11 281
1987311N10148 1987 94 WP MM MAURY 1987-11-09 03:00:00 NR 12.4040 143.469 main 1660 1659 P_________P___ WP221987 12.3926 143.445 20 -1 12.4153 143.493 1 20 13 280
1987311N10148 1987 94 WP MM MAURY 1987-11-09 06:00:00 NR 12.5217 142.745 main 1656 1648 O_________P___ jtwc_wp WP221987 12.5000 142.700 20 -1 12.5434 142.790 1 20 14 280
1987311N10148 1987 94 WP MM MAURY 1987-11-09 09:00:00 NR 12.6622 142.021 main 1655 1636 P_________P___ WP221987 12.6498 142.000 20 -1 12.6746 142.043 1 20 14 281
1987311N10148 1987 94 WP MM MAURY 1987-11-09 12:00:00 NR 12.8000 141.300 main 1636 1620 O_________O___ jtwc_wp WP221987 12.8000 141.300 20 -1 12.8000 141.300 1 20 14 280
1987311N10148 1987 94 WP MM MAURY 1987-11-09 15:00:00 NR 12.9112 140.602 main 1620 1561 P_________P___ WP221987 12.9074 140.585 20 -1 12.9149 140.619 1 21 14 279
1987311N10148 1987 94 WP MM MAURY 1987-11-09 18:00:00 NR 13.0110 139.928 main 1550 1487 O_________P___ jtwc_wp WP221987 13.0000 139.900 20 -1 13.0220 139.955 1 22 13 279
1987311N10148 1987 94 WP MM MAURY 1987-11-09 21:00:00 NR 13.1127 139.295 main 1487 1424 P_________P___ WP221987 13.1073 139.278 22 -1 13.1181 139.313 1 23 12 279
1987311N10148 1987 94 WP MM MAURY 1987-11-10 00:00:00 NR 13.2000 138.700 main 1424 1371 O_________O___ jtwc_wp WP221987 13.2000 138.700 25 -1 13.2000 138.700 1 25 11 277
1987311N10148 1987 94 WP MM MAURY 1987-11-10 03:00:00 NR 13.2483 138.132 main 1360 1308 P_________P___ WP221987 13.2573 138.142 25 -1 13.2393 138.121 1 25 11 274
1987311N10148 1987 94 WP MM MAURY 1987-11-10 06:00:00 NR 13.2846 137.585 main 1308 1255 O_________P___ jtwc_wp WP221987 13.3000 137.600 25 -1 13.2691 137.569 1 25 11 274
1987311N10148 1987 94 WP MM MAURY 1987-11-10 09:00:00 NR 13.3246 137.041 main 1245 1194 P_________P___ WP221987 13.3349 137.050 25 -1 13.3144 137.033 1 25 11 276
1987311N10148 1987 94 WP MM MAURY 1987-11-10 12:00:00 NR 13.4000 136.500 main 1194 1143 O_________O___ jtwc_wp WP221987 13.4000 136.500 25 -1 13.4000 136.500 1 25 11 281
1987311N10148 1987 94 WP MM MAURY 1987-11-10 15:00:00 NR 13.5384 135.934 main 1133 1086 P_________P___ WP221987 13.5199 135.950 25 -1 13.5570 135.918 1 26 12 286
1987311N10148 1987 94 WP MM MAURY 1987-11-10 18:00:00 NR 13.7134 135.362 main 1086 1036 O__O______P___ jtwc_wp WP221987 13.7000 135.400 25 -1 13.6000 135.300 TD 25 1004 13.7552 135.341 1 27 12 292
1987311N10148 1987 94 WP MM MAURY 1987-11-10 21:00:00 NR 13.9649 134.834 main 1027 989 P__P______P___ WP221987 13.9350 134.828 27 -1 14.0027 134.928 TD 27 1004 13.9758 134.793 1 28 11 298
1987311N10148 1987 94 WP MM MAURY 1987-11-11 00:00:00 NR 14.2273 134.382 main 989 952 O__O______O___ jtwc_wp WP221987 14.2000 134.300 30 -1 14.3000 134.600 TD 30 1004 14.2000 134.300 1 30 9 302
1987311N10148 1987 94 WP MM MAURY 1987-11-11 03:00:00 NR 14.4490 134.022 main 952 927 P__P______P___ WP221987 14.4649 133.862 30 -1 14.4299 134.342 TD 30 1004 14.4524 133.860 1 30 8 301
1987311N10148 1987 94 WP MM MAURY 1987-11-11 06:00:00 NR 14.6323 133.693 main 927 902 O__O______P___ jtwc_wp WP221987 14.7000 133.500 30 -1 14.5000 134.100 TD 30 1004 14.6970 133.480 1 30 7 300
1987311N10148 1987 94 WP MM MAURY 1987-11-11 09:00:00 NR 14.8127 133.382 main 902 875 P__P______P___ WP221987 14.8874 133.177 30 -1 14.6575 133.808 TD 30 1004 14.8932 133.160 1 30 6 298
1987311N10148 1987 94 WP MM MAURY 1987-11-11 12:00:00 NR 14.9333 133.100 main 875 859 O__O______O___ jtwc_wp WP221987 15.0000 132.900 30 -1 14.8000 133.500 TD 30 1004 15.0000 132.900 1 30 5 286
1987311N10148 1987 94 WP MM MAURY 1987-11-11 15:00:00 NR 14.9629 132.854 main 859 825 P__P______P___ WP221987 15.0600 132.612 27 -1 14.8650 133.200 TD 30 1004 14.9636 132.749 1 27 5 268
1987311N10148 1987 94 WP MM MAURY 1987-11-11 18:00:00 NR 14.9141 132.625 main 825 811 O__O______P___ jtwc_wp WP221987 15.0000 132.400 25 -1 14.9000 132.900 TD 30 1004 14.8389 132.645 1 25 4 241
1987311N10148 1987 94 WP MM MAURY 1987-11-11 21:00:00 NR 14.7629 132.476 main 811 783 P__P______P___ WP221987 14.7648 132.373 22 -1 14.9451 132.600 TD 27 1004 14.6698 132.518 1 22 5 221
1987311N10148 1987 94 WP MM MAURY 1987-11-12 00:00:00 NR 14.5556 132.300 main 783 745 O__O______O___ jtwc_wp WP221987 14.5000 132.300 20 -1 15.0000 132.300 TD 25 1004 14.5000 132.300 1 20 6 234
1987311N10148 1987 94 WP MM MAURY 1987-11-12 03:00:00 NR 14.3833 131.941 main 735 690 P_________P___ WP221987 14.3774 131.983 20 -1 TD 14.3892 131.900 1 20 9 252
1987311N10148 1987 94 WP MM MAURY 1987-11-12 06:00:00 NR 14.2928 131.452 main 690 626 O_________P___ jtwc_wp WP221987 14.3000 131.500 20 -1 14.2856 131.405 1 20 10 259
1987311N10148 1987 94 WP MM MAURY 1987-11-12 09:00:00 NR 14.1908 130.890 main 626 533 P_________P___ WP221987 14.1926 130.922 20 -1 14.1891 130.857 1 20 14 254
1987311N10148 1987 94 WP MM MAURY 1987-11-12 12:00:00 TS 13.8889 130.044 main 523 459 O_O_______O___ jtwc_wp WP221987 14.1000 130.300 20 -1 12.2000 128.000 1 23 1004 14.1000 130.300 1 20 15 256
1987311N10148 1987 94 WP MM MAURY 1987-11-12 15:00:00 TS 13.8195 129.344 main 449 400 P_P_______P___ WP221987 14.0499 129.728 22 -1 12.9701 127.713 1 23 1004 14.0138 129.776 1 22 12 268
1987311N10148 1987 94 WP MM MAURY 1987-11-12 18:00:00 TS 13.8367 128.768 main 400 352 O_O_______P___ jtwc_wp WP221987 14.0000 129.200 25 -1 13.5000 127.500 1 23 1004 13.9351 129.255 1 25 10 268
1987311N10148 1987 94 WP MM MAURY 1987-11-12 21:00:00 TS 13.7921 128.319 main 352 318 P_P_______P___ WP221987 13.8999 128.720 27 -1 13.6399 127.400 1 26 1004 13.8638 128.757 1 27 8 261
1987311N10148 1987 94 WP MM MAURY 1987-11-13 00:00:00 TS 13.7125 127.994 1004 tokyo main 318 291 OOO_______O___ jtwc_wp WP221987 13.8000 128.300 30 -1 13.5000 128.000 2 1004 0 0 0 13.6000 127.300 1 29 1004 13.8000 128.300 1 30 6 261
1987311N10148 1987 94 WP MM MAURY 1987-11-13 03:00:00 TS 13.6918 127.681 main 291 265 PPP_______P___ WP221987 13.7424 127.935 30 -1 13.5500 127.750 2 1003 0 0 13.6575 127.073 1 29 1003 13.7383 127.903 1 30 6 265
1987311N10148 1987 94 WP MM MAURY 1987-11-13 06:00:00 TS 13.6651 127.384 1002 tokyo main 265 233 OOO_______P___ jtwc_wp WP221987 13.7000 127.600 30 -1 13.5000 127.500 2 1002 0 0 0 13.7000 126.800 1 29 1002 13.6844 127.548 1 30 6 260
1987311N10148 1987 94 WP MM MAURY 1987-11-13 09:00:00 TS 13.5911 127.102 main 233 202 PPP_______P___ WP221987 13.6500 127.250 30 -1 13.2875 127.250 2 1003 0 0 13.7225 126.550 1 29 1002 13.6384 127.219 1 30 6 253
1987311N10148 1987 94 WP MM MAURY 1987-11-13 12:00:00 TS 13.5000 126.820 1004 tokyo main 202 171 OOO_______O___ jtwc_wp WP221987 13.6000 126.900 30 -1 13.0000 127.000 2 1004 0 0 0 13.7000 126.300 1 29 1002 13.6000 126.900 1 30 6 251
1987311N10148 1987 94 WP MM MAURY 1987-11-13 15:00:00 TS 13.4027 126.532 main 171 148 PPP_______P___ WP221987 13.5425 126.542 30 -1 12.7125 126.750 2 1004 0 0 13.6375 126.050 1 29 1002 13.5636 126.568 1 30 6 251
1987311N10148 1987 94 WP MM MAURY 1987-11-13 18:00:00 TS 13.3070 126.249 1004 tokyo main 140 116 OOO_______P___ jtwc_wp WP221987 13.5000 126.200 30 -1 12.5000 126.500 2 1004 0 0 0 13.5000 125.800 1 29 1002 13.5348 126.243 1 30 6 252
1987311N10148 1987 94 WP MM MAURY 1987-11-13 21:00:00 TS 13.2252 125.980 main 116 95 PPP_______P___ WP221987 13.4924 125.893 30 -1 12.4623 126.288 2 1005 0 0 13.2500 125.535 1 29 1002 13.5136 125.921 1 30 6 255
1987311N10148 1987 94 WP MM MAURY 1987-11-14 00:00:00 TS 13.1600 125.700 1006 tokyo main 95 70 OOO_______O___ jtwc_wp WP221987 13.5000 125.600 30 -1 12.5000 126.000 2 1006 0 0 0 13.0000 125.300 1 29 1002 13.5000 125.600 1 30 6 259
1987311N10148 1987 94 WP MM MAURY 1987-11-14 03:00:00 TS 13.1150 125.380 main 70 67 PPP_______P___ WP221987 13.4999 125.308 27 -1 12.5003 125.500 2 1006 0 0 12.8700 125.135 1 29 1003 13.5048 125.287 1 28 6 263
1987311N10148 1987 94 WP MM MAURY 1987-11-14 06:00:00 TS 13.0829 125.055 1006 tokyo main 67 67 OOO_______P___ jtwc_wp WP221987 13.5000 125.000 25 -1 12.5000 125.000 2 1006 0 0 0 12.8000 125.000 1 29 1004 13.5146 124.973 1 27 6 264
1987311N10148 1987 94 WP MM MAURY 1987-11-14 09:00:00 TS 13.0504 124.765 main 68 43 PPP_______P___ WP221987 13.5075 124.658 25 -1 12.4997 124.750 2 1006 0 0 12.7350 124.865 1 29 1004 13.5172 124.647 1 26 6 264
1987311N10148 1987 94 WP MM MAURY 1987-11-14 12:00:00 TS 13.0200 124.460 1006 tokyo main 43 0 OOO_______O___ jtwc_wp WP221987 13.5000 124.300 25 -1 12.5000 124.500 2 1006 0 0 0 12.7000 124.700 1 29 1004 13.5000 124.300 1 25 6 264
1987311N10148 1987 94 WP MM MAURY 1987-11-14 15:00:00 TS 12.9871 124.106 main 0 0 PPP_______P___ WP221987 13.4649 123.965 25 -1 12.5001 124.037 2 1006 0 0 12.6849 124.487 1 26 1004 13.4505 123.926 1 25 7 265
1987311N10148 1987 94 WP MM MAURY 1987-11-14 18:00:00 TS 12.9560 123.706 1006 tokyo main 0 0 OOO_______P___ jtwc_wp WP221987 13.4000 123.600 25 -1 12.5000 123.500 2 1006 0 0 0 12.7000 124.200 1 23 1004 13.3799 123.530 1 25 8 266
1987311N10148 1987 94 WP MM MAURY 1987-11-14 21:00:00 TS 12.9289 123.258 main 11 11 PPP_______P___ WP221987 13.3076 123.150 25 -1 12.4999 123.000 2 1007 0 0 12.7501 123.808 1 23 1004 13.2943 123.119 1 25 9 266
1987311N10148 1987 94 WP MM MAURY 1987-11-15 00:00:00 TS 12.9000 122.800 1008 tokyo main 35 33 OOO_______O___ jtwc_wp WP221987 13.2000 122.700 25 -1 12.5000 122.500 2 1008 0 0 0 12.8000 123.400 1 23 1004 13.2000 122.700 1 25 8 265
1987311N10148 1987 94 WP MM MAURY 1987-11-15 03:00:00 TS 12.8595 122.394 main 39 39 PPP_______P___ WP221987 13.0998 122.358 25 -1 12.4999 122.000 2 1007 0 0 12.8074 123.100 1 23 1005 13.0904 122.310 1 25 8 264
1987311N10148 1987 94 WP MM MAURY 1987-11-15 06:00:00 TS 12.8153 121.982 1006 tokyo main 48 10 OOO_______P___ jtwc_wp WP221987 13.0000 122.000 25 -1 12.5000 121.500 2 1006 0 0 0 12.8000 122.800 1 23 1006 12.9767 121.910 1 25 8 264
1987311N10148 1987 94 WP MM MAURY 1987-11-15 09:00:00 TS 12.7703 121.534 main 0 0 PPP_______P___ WP221987 12.8850 121.530 25 -1 12.4999 121.000 2 1006 0 0 12.7922 122.460 1 23 1006 12.8747 121.479 1 25 9 265
1987311N10148 1987 94 WP MM MAURY 1987-11-15 12:00:00 TS 12.7400 121.040 1006 tokyo main 0 0 OOO_______O___ jtwc_wp WP221987 12.8000 121.000 25 -1 12.5000 120.500 2 1006 0 0 0 12.8000 122.000 1 23 1006 12.8000 121.000 1 25 10 268
1987311N10148 1987 94 WP MM MAURY 1987-11-15 15:00:00 TS 12.7371 120.500 main 32 32 PPP_______P___ WP221987 12.7848 120.473 25 -1 12.4997 120.037 2 1006 0 0 12.8502 121.338 1 23 1005 12.7510 120.454 1 26 11 270
1987311N10148 1987 94 WP MM MAURY 1987-11-15 18:00:00 TS 12.7465 119.912 1006 tokyo main 85 85 OOO_______P___ jtwc_wp WP221987 12.8000 119.900 25 -1 12.5000 119.500 2 1006 0 0 0 12.9000 120.600 1 23 1004 12.7325 119.860 1 27 12 270
1987311N10148 1987 94 WP MM MAURY 1987-11-15 21:00:00 TS 12.7420 119.280 main 133 133 PPP_______P___ WP221987 12.7924 119.265 27 -1 12.4628 118.750 2 1006 0 0 12.9073 119.942 1 26 1004 12.7477 119.235 1 28 12 271
1987311N10148 1987 94 WP MM MAURY 1987-11-16 00:00:00 TS 12.7600 118.640 1006 tokyo main 194 194 OOO_______O___ jtwc_wp WP221987 12.8000 118.600 30 -1 12.5000 118.000 2 1006 0 0 0 12.9000 119.300 1 29 1004 12.8000 118.600 1 30 12 274
1987311N10148 1987 94 WP MM MAURY 1987-11-16 03:00:00 TS 12.8236 118.040 main 234 234 PPP_______P___ WP221987 12.8199 117.942 30 -1 12.7122 117.463 2 1005 0 0 12.8924 118.642 1 29 1003 12.9013 117.958 1 31 12 278
1987311N10148 1987 94 WP MM MAURY 1987-11-16 06:00:00 TS 12.9270 117.443 1004 tokyo main 289 289 OOO_______P___ jtwc_wp WP221987 12.9000 117.300 30 -1 13.0000 117.000 2 1004 0 0 0 12.9000 118.000 1 29 1002 13.0351 117.313 1 32 12 281
1987311N10148 1987 94 WP MM MAURY 1987-11-16 09:00:00 TS 13.0577 116.819 main 353 353 PPP_______P___ WP221987 13.0924 116.678 32 -1 13.2649 116.500 2 1004 0 0 12.9346 117.415 1 29 1002 13.1763 116.686 1 33 12 283
1987311N10148 1987 94 WP MM MAURY 1987-11-16 12:00:00 TS 13.2000 116.200 1004 tokyo main 413 413 OOO_______O___ jtwc_wp WP221987 13.3000 116.100 35 0 13.5000 116.000 2 1004 0 0 0 13.0000 116.800 1 29 1002 13.3000 116.100 2 35 12 283
1987311N10148 1987 94 WP MM MAURY 1987-11-16 15:00:00 TS 13.3388 115.603 main 475 475 PPP_______P___ WP221987 13.4298 115.577 37 0 13.6874 115.500 2 1003 0 0 13.0926 116.058 1 33 1001 13.3995 115.562 2 36 12 283
1987311N10148 1987 94 WP MM MAURY 1987-11-16 18:00:00 TS 13.4549 115.034 35 1002 tokyo main 543 543 OOO_______P___ jtwc_wp WP221987 13.5000 115.100 40 0 13.8000 115.000 3 35 1002 0 9 100 100 0 13.2000 115.300 2 38 1000 13.4744 115.068 2 37 11 280
1987311N10148 1987 94 WP MM MAURY 1987-11-16 21:00:00 TS 13.5334 114.482 main 545 493 PPP_______P___ WP221987 13.5224 114.642 40 0 13.8300 114.485 3 40 1001 0 9 100 100 13.3148 114.620 2 38 999 13.5122 114.615 2 38 10 276
1987311N10148 1987 94 WP MM MAURY 1987-11-17 00:00:00 TS 13.5600 113.980 45 1000 tokyo main 493 449 OOO_______O___ jtwc_wp WP221987 13.5000 114.200 40 0 13.8000 114.000 3 45 1000 0 9 100 100 0 13.4000 114.000 2 38 998 13.5000 114.200 2 40 9 270
1987311N10148 1987 94 WP MM MAURY 1987-11-17 03:00:00 TS 13.5364 113.529 main 438 406 PPP_______P___ WP221987 13.4801 113.720 42 0 13.7649 113.578 3 45 999 0 9 100 100 13.4299 113.412 2 43 998 13.4047 113.793 2 40 8 262
1987311N10148 1987 94 WP MM MAURY 1987-11-17 06:00:00 TS 13.4529 113.145 45 998 tokyo main 395 360 OOO_______P___ jtwc_wp WP221987 13.4000 113.300 45 0 13.7000 113.200 3 45 998 0 9 100 100 0 13.4000 112.900 3 48 998 13.2647 113.424 2 40 7 251
1987311N10148 1987 94 WP MM MAURY 1987-11-17 09:00:00 TS 13.3019 112.819 main 360 337 PPP_______P___ WP221987 13.1924 113.020 42 0 13.6149 112.843 3 45 997 0 9 112 112 13.2849 112.455 3 48 998 13.1173 113.093 2 40 7 244
1987311N10148 1987 94 WP MM MAURY 1987-11-17 12:00:00 TS 13.1600 112.540 45 996 tokyo main 326 304 OOO_______O___ jtwc_wp WP221987 13.0000 112.800 40 0 13.5000 112.500 3 45 996 0 9 125 125 0 13.2000 112.100 3 48 998 13.0000 112.800 2 40 6 251
1987311N10148 1987 94 WP MM MAURY 1987-11-17 15:00:00 TS 13.1201 112.268 main 304 271 PPP_______P___ WP221987 12.9700 112.543 40 0 13.3650 112.128 3 42 995 0 9 125 125 13.2699 111.835 3 43 998 12.9679 112.543 2 38 5 265
1987311N10148 1987 94 WP MM MAURY 1987-11-17 18:00:00 TS 13.1139 112.024 40 994 tokyo main 271 250 OOO_______P___ jtwc_wp WP221987 13.0000 112.300 40 0 13.2000 111.800 3 40 994 0 9 125 125 0 13.4000 111.600 2 38 998 12.9697 112.320 2 37 5 265
1987311N10148 1987 94 WP MM MAURY 1987-11-17 21:00:00 TS 13.0813 111.802 main 250 228 PPP_______P___ WP221987 13.0000 112.093 37 0 12.9624 111.562 3 40 994 0 9 125 125 13.5075 111.300 2 38 998 12.9866 112.112 2 36 4 263
1987311N10148 1987 94 WP MM MAURY 1987-11-18 00:00:00 TS 13.0600 111.600 40 994 tokyo main 228 207 OOO_______O___ jtwc_wp WP221987 13.0000 111.900 35 0 12.8000 111.400 3 40 994 0 9 125 125 0 13.6000 111.000 2 38 998 13.0000 111.900 2 35 4 268
1987311N10148 1987 94 WP MM MAURY 1987-11-18 03:00:00 TS 13.0712 111.421 main 207 185 PPP_______P___ WP221987 13.0074 111.715 35 0 12.8549 111.323 3 40 995 0 9 125 125 13.6650 110.742 2 38 999 12.9861 111.669 2 35 4 275
1987311N10148 1987 94 WP MM MAURY 1987-11-18 06:00:00 TS 13.0930 111.226 40 996 tokyo main 185 164 OOO_______P___ jtwc_wp WP221987 13.0000 111.500 35 0 13.0000 111.200 3 40 996 0 9 125 125 0 13.7000 110.500 2 38 1000 12.9648 111.430 2 35 4 274
1987311N10148 1987 94 WP MM MAURY 1987-11-18 09:00:00 TS 13.1017 110.967 main 164 132 PPP_______P___ WP221987 12.9575 111.215 35 0 13.1151 110.888 3 40 997 0 9 112 112 13.7150 110.250 2 33 1000 12.9361 111.176 2 35 5 271
1987311N10148 1987 94 WP MM MAURY 1987-11-18 12:00:00 TS 13.1000 110.680 40 998 tokyo main 132 100 OOO_______O___ jtwc_wp WP221987 12.9000 110.900 35 0 13.2000 110.500 3 40 998 0 9 100 100 0 13.7000 110.000 1 29 1000 12.9000 110.900 2 35 5 270
1987311N10148 1987 94 WP MM MAURY 1987-11-18 15:00:00 TS 13.0974 110.408 main 100 68 PPP_______P___ WP221987 12.8499 110.608 32 -1 13.2299 110.158 3 40 999 0 9 100 100 13.6875 109.750 1 26 1001 12.8774 110.609 2 33 5 267
1987311N10148 1987 94 WP MM MAURY 1987-11-18 18:00:00 TS 13.0690 110.119 40 1000 tokyo main 68 34 OOO_______P___ jtwc_wp WP221987 12.8000 110.300 30 -1 13.2000 109.800 3 40 1000 0 9 100 100 0 13.6000 109.500 1 23 1002 12.8448 110.295 2 32 6 262
1987311N10148 1987 94 WP MM MAURY 1987-11-18 21:00:00 TS 13.0090 109.787 main 34 0 PPP_______P___ WP221987 12.7724 109.965 30 -1 13.1376 109.385 3 1002 0 9 13.3950 109.182 1 23 1002 12.7898 109.959 2 31 7 255
1987311N10148 1987 94 WP MM MAURY 1987-11-19 00:00:00 TS 12.8889 109.450 1004 tokyo main 0 0 OOO_______O___ jtwc_wp WP221987 12.7000 109.600 30 -1 13.0000 109.000 2 1004 0 0 0 13.1000 109.000 1 23 1002 12.7000 109.600 1 30 7 242
1987311N10148 1987 94 WP MM MAURY 1987-11-19 03:00:00 TS 12.6918 109.186 main 0 0 PPP_______P___ WP221987 12.5150 109.207 27 -1 12.7750 108.717 2 1005 0 0 12.7725 109.140 1 21 1003 12.5669 109.219 1 27 6 227
1987311N10148 1987 94 WP MM MAURY 1987-11-19 06:00:00 TS 12.4449 108.970 1006 tokyo main 0 0 OOO_______P___ jtwc_wp WP221987 12.3000 108.800 25 -1 12.5000 108.500 2 1006 0 0 0 12.4000 109.400 0 19 1005 12.3981 108.822 1 25 7 213
1987311N10148 1987 94 WP MM MAURY 1987-11-19 09:00:00 TS 12.1143 108.798 main 0 0 P_P_______P___ WP221987 12.1326 108.398 22 -1 2 0 0 12.0050 109.582 0 19 1005 12.2052 108.413 1 22 7 214
1987311N10148 1987 94 WP MM MAURY 1987-11-19 12:00:00 TS 11.8667 108.567 main 0 O_O_______O___ jtwc_wp WP221987 12.0000 108.000 20 -1 11.6000 109.700 0 19 1006 12.0000 108.000 1 20 7 222

デジタル台風データ・検索

IBTrACS Databaseについて

本データベースは、米国NOAAが公開する1842年以降の世界の熱帯低気圧のベストトラックデータアーカイブInternational Best Track Archive for Climate Stewardship (IBTrACS)を、ウェブで閲覧しやすい形式に変換したものです。

最終更新日:2021-10-21